KBPG/BPG METAR and TAF weather

Enter ICAO airport designator
Station Type Date Time Source
KBPG METAR 2024/02/26 18:15 UTC NOAA

KBPG 261815Z AUTO 22017G22KT 10SM CLR 30/M01 A2997 RMK AO2 T03001009


Station Type Date Time Source
KBPG Decoded METAR 2024/02/26 18:15 UTC NOAA

Big Spring, Big Spring McMahon-Wrinkle Airport, TX, United States (KBPG) 32-12N 101-31W
Feb 26, 2024 - 01:15 PM EST / 2024.02.26 1815 UTC
Wind: from the SW (220 degrees) at 20 MPH (17 KT) gusting to 25 MPH (22 KT):0
Visibility: 10 mile(s):0
Sky conditions: clear
Temperature: 86.0 F (30.0 C)
Dew Point: 30.4 F (-0.9 C)
Relative Humidity: 13%
Pressure (altimeter): 29.97 in. Hg (1014 hPa)
ob: KBPG 261815Z AUTO 22017G22KT 10SM CLR 30/M01 A2997 RMK AO2 T03001009
cycle: 18

Station Type Date Time Source
KBPG TAF UTC NOAA

Error!

Example: see airport list